sensor_id;sensor_type;location;lat;lon;timestamp;pressure;altitude;pressure_sealevel;temperature
41940;BMP180;23057;48.554;14.454;2023-10-13T00:02:30;93982.00;;;23.70
41940;BMP180;23057;48.554;14.454;2023-10-13T00:05:00;93971.00;;;23.70
41940;BMP180;23057;48.554;14.454;2023-10-13T00:07:31;93976.00;;;23.70
41940;BMP180;23057;48.554;14.454;2023-10-13T00:10:02;93973.00;;;23.80
41940;BMP180;23057;48.554;14.454;2023-10-13T00:12:37;93966.00;;;23.80
41940;BMP180;23057;48.554;14.454;2023-10-13T00:15:09;93970.00;;;23.80
41940;BMP180;23057;48.554;14.454;2023-10-13T00:17:44;93966.00;;;23.80
41940;BMP180;23057;48.554;14.454;2023-10-13T00:20:15;93970.00;;;23.80
41940;BMP180;23057;48.554;14.454;2023-10-13T00:22:48;93967.00;;;23.80
41940;BMP180;23057;48.554;14.454;2023-10-13T00:25:18;93957.00;;;23.80
41940;BMP180;23057;48.554;14.454;2023-10-13T00:27:56;93961.00;;;23.80
41940;BMP180;23057;48.554;14.454;2023-10-13T00:30:28;93965.00;;;23.80
41940;BMP180;23057;48.554;14.454;2023-10-13T00:33:05;93960.00;;;23.90
41940;BMP180;23057;48.554;14.454;2023-10-13T00:35:35;93956.00;;;23.90
41940;BMP180;23057;48.554;14.454;2023-10-13T00:38:06;93956.00;;;23.90
41940;BMP180;23057;48.554;14.454;2023-10-13T00:40:44;93958.00;;;23.90
41940;BMP180;23057;48.554;14.454;2023-10-13T00:43:23;93951.00;;;23.90
41940;BMP180;23057;48.554;14.454;2023-10-13T00:45:56;93957.00;;;24.00
41940;BMP180;23057;48.554;14.454;2023-10-13T00:48:38;93963.00;;;24.00
41940;BMP180;23057;48.554;14.454;2023-10-13T00:51:22;93964.00;;;24.00
41940;BMP180;23057;48.554;14.454;2023-10-13T00:54:05;93959.00;;;24.00
41940;BMP180;23057;48.554;14.454;2023-10-13T00:56:43;93962.00;;;24.00
41940;BMP180;23057;48.554;14.454;2023-10-13T00:59:40;93954.00;;;23.90
41940;BMP180;23057;48.554;14.454;2023-10-13T01:02:13;93959.00;;;23.90
41940;BMP180;23057;48.554;14.454;2023-10-13T01:05:16;93951.00;;;23.90
41940;BMP180;23057;48.554;14.454;2023-10-13T01:07:50;93950.00;;;23.90
41940;BMP180;23057;48.554;14.454;2023-10-13T01:10:24;93946.00;;;23.80
41940;BMP180;23057;48.554;14.454;2023-10-13T01:12:58;93945.00;;;23.80
41940;BMP180;23057;48.554;14.454;2023-10-13T01:15:32;93952.00;;;23.70
41940;BMP180;23057;48.554;14.454;2023-10-13T01:18:10;93945.00;;;23.70
41940;BMP180;23057;48.554;14.454;2023-10-13T01:20:43;93948.00;;;23.70
41940;BMP180;23057;48.554;14.454;2023-10-13T01:23:16;93956.00;;;23.60
41940;BMP180;23057;48.554;14.454;2023-10-13T01:25:50;93961.00;;;23.60
41940;BMP180;23057;48.554;14.454;2023-10-13T01:28:21;93968.00;;;23.60
41940;BMP180;23057;48.554;14.454;2023-10-13T01:30:52;93970.00;;;23.60
41940;BMP180;23057;48.554;14.454;2023-10-13T01:33:23;93956.00;;;23.60
41940;BMP180;23057;48.554;14.454;2023-10-13T01:35:57;93960.00;;;23.60
41940;BMP180;23057;48.554;14.454;2023-10-13T01:38:29;93954.00;;;23.60
41940;BMP180;23057;48.554;14.454;2023-10-13T01:41:07;93958.00;;;23.60
41940;BMP180;23057;48.554;14.454;2023-10-13T01:43:39;93955.00;;;23.70
41940;BMP180;23057;48.554;14.454;2023-10-13T01:46:11;93956.00;;;23.60
41940;BMP180;23057;48.554;14.454;2023-10-13T01:48:45;93955.00;;;23.70
41940;BMP180;23057;48.554;14.454;2023-10-13T01:51:16;93950.00;;;23.60
41940;BMP180;23057;48.554;14.454;2023-10-13T01:53:47;93948.00;;;23.70
41940;BMP180;23057;48.554;14.454;2023-10-13T01:56:26;93960.00;;;23.70
41940;BMP180;23057;48.554;14.454;2023-10-13T01:59:00;93958.00;;;23.60
41940;BMP180;23057;48.554;14.454;2023-10-13T02:01:35;93961.00;;;23.60
41940;BMP180;23057;48.554;14.454;2023-10-13T02:04:07;93961.00;;;23.50
41940;BMP180;23057;48.554;14.454;2023-10-13T02:06:40;93966.00;;;23.50
41940;BMP180;23057;48.554;14.454;2023-10-13T02:09:13;93971.00;;;23.40
41940;BMP180;23057;48.554;14.454;2023-10-13T02:11:45;93969.00;;;23.40
41940;BMP180;23057;48.554;14.454;2023-10-13T02:14:16;93967.00;;;23.40
41940;BMP180;23057;48.554;14.454;2023-10-13T02:16:50;93968.00;;;23.30
41940;BMP180;23057;48.554;14.454;2023-10-13T02:19:22;93968.00;;;23.30
41940;BMP180;23057;48.554;14.454;2023-10-13T02:21:57;93962.00;;;23.20
41940;BMP180;23057;48.554;14.454;2023-10-13T02:24:33;93972.00;;;23.20
41940;BMP180;23057;48.554;14.454;2023-10-13T02:27:04;93967.00;;;23.20
41940;BMP180;23057;48.554;14.454;2023-10-13T02:29:35;93964.00;;;23.10
41940;BMP180;23057;48.554;14.454;2023-10-13T02:32:10;93965.00;;;23.10
41940;BMP180;23057;48.554;14.454;2023-10-13T02:34:49;93970.00;;;23.10
41940;BMP180;23057;48.554;14.454;2023-10-13T02:37:19;93976.00;;;23.10
41940;BMP180;23057;48.554;14.454;2023-10-13T02:39:50;93977.00;;;23.20
41940;BMP180;23057;48.554;14.454;2023-10-13T02:42:21;93967.00;;;23.20
41940;BMP180;23057;48.554;14.454;2023-10-13T02:44:55;93977.00;;;23.20
41940;BMP180;23057;48.554;14.454;2023-10-13T02:47:28;93977.00;;;23.20
41940;BMP180;23057;48.554;14.454;2023-10-13T02:50:02;93974.00;;;23.20
41940;BMP180;23057;48.554;14.454;2023-10-13T02:52:38;93975.00;;;23.20
41940;BMP180;23057;48.554;14.454;2023-10-13T02:55:12;93982.00;;;23.20
41940;BMP180;23057;48.554;14.454;2023-10-13T02:57:46;93980.00;;;23.20
41940;BMP180;23057;48.554;14.454;2023-10-13T03:00:19;93979.00;;;23.20
41940;BMP180;23057;48.554;14.454;2023-10-13T03:02:53;93985.00;;;23.20
41940;BMP180;23057;48.554;14.454;2023-10-13T03:05:28;93977.00;;;23.20
41940;BMP180;23057;48.554;14.454;2023-10-13T03:08:06;93969.00;;;23.20
41940;BMP180;23057;48.554;14.454;2023-10-13T03:10:37;93968.00;;;23.20
41940;BMP180;23057;48.554;14.454;2023-10-13T03:13:16;93964.00;;;23.20
41940;BMP180;23057;48.554;14.454;2023-10-13T03:15:47;93974.00;;;23.20
41940;BMP180;23057;48.554;14.454;2023-10-13T03:18:18;93974.00;;;23.20
41940;BMP180;23057;48.554;14.454;2023-10-13T03:20:49;93979.00;;;23.20
41940;BMP180;23057;48.554;14.454;2023-10-13T03:23:26;93973.00;;;23.20
41940;BMP180;23057;48.554;14.454;2023-10-13T03:25:57;93976.00;;;23.20
41940;BMP180;23057;48.554;14.454;2023-10-13T03:28:34;93979.00;;;23.10
41940;BMP180;23057;48.554;14.454;2023-10-13T03:31:05;93984.00;;;23.00
41940;BMP180;23057;48.554;14.454;2023-10-13T03:33:38;93975.00;;;23.00
41940;BMP180;23057;48.554;14.454;2023-10-13T03:36:09;93980.00;;;22.90
41940;BMP180;23057;48.554;14.454;2023-10-13T03:38:39;93981.00;;;22.90
41940;BMP180;23057;48.554;14.454;2023-10-13T03:41:10;93978.00;;;22.90
41940;BMP180;23057;48.554;14.454;2023-10-13T03:43:51;93968.00;;;22.80
41940;BMP180;23057;48.554;14.454;2023-10-13T03:46:37;93970.00;;;22.80
41940;BMP180;23057;48.554;14.454;2023-10-13T03:49:11;93966.00;;;22.70
41940;BMP180;23057;48.554;14.454;2023-10-13T03:51:43;93968.00;;;22.60
41940;BMP180;23057;48.554;14.454;2023-10-13T03:54:15;93959.00;;;22.60
41940;BMP180;23057;48.554;14.454;2023-10-13T03:56:47;93950.00;;;22.60
41940;BMP180;23057;48.554;14.454;2023-10-13T03:59:22;93956.00;;;22.50
41940;BMP180;23057;48.554;14.454;2023-10-13T04:01:53;93965.00;;;22.50
41940;BMP180;23057;48.554;14.454;2023-10-13T04:04:25;93956.00;;;22.50
41940;BMP180;23057;48.554;14.454;2023-10-13T04:07:05;93954.00;;;22.30
41940;BMP180;23057;48.554;14.454;2023-10-13T04:09:37;93963.00;;;22.20
41940;BMP180;23057;48.554;14.454;2023-10-13T04:12:18;93968.00;;;22.10
41940;BMP180;23057;48.554;14.454;2023-10-13T04:14:56;93967.00;;;21.90
41940;BMP180;23057;48.554;14.454;2023-10-13T04:17:36;93967.00;;;21.80
41940;BMP180;23057;48.554;14.454;2023-10-13T04:20:15;93968.00;;;21.80
41940;BMP180;23057;48.554;14.454;2023-10-13T04:22:58;93977.00;;;21.70
41940;BMP180;23057;48.554;14.454;2023-10-13T04:25:29;93973.00;;;21.70
41940;BMP180;23057;48.554;14.454;2023-10-13T04:28:14;93976.00;;;21.70
41940;BMP180;23057;48.554;14.454;2023-10-13T04:31:05;93981.00;;;21.70
41940;BMP180;23057;48.554;14.454;2023-10-13T04:33:55;93974.00;;;21.70
41940;BMP180;23057;48.554;14.454;2023-10-13T04:36:32;93977.00;;;21.70
41940;BMP180;23057;48.554;14.454;2023-10-13T04:39:03;93978.00;;;21.70
41940;BMP180;23057;48.554;14.454;2023-10-13T04:41:37;93965.00;;;21.70
41940;BMP180;23057;48.554;14.454;2023-10-13T04:44:20;93957.00;;;21.60
41940;BMP180;23057;48.554;14.454;2023-10-13T04:47:14;93966.00;;;21.60
41940;BMP180;23057;48.554;14.454;2023-10-13T04:49:48;93970.00;;;21.50
41940;BMP180;23057;48.554;14.454;2023-10-13T04:52:19;93971.00;;;21.50
41940;BMP180;23057;48.554;14.454;2023-10-13T04:55:08;93967.00;;;21.50
41940;BMP180;23057;48.554;14.454;2023-10-13T04:58:07;93967.00;;;21.40
41940;BMP180;23057;48.554;14.454;2023-10-13T05:00:44;93970.00;;;21.40
41940;BMP180;23057;48.554;14.454;2023-10-13T05:03:34;93973.00;;;21.40
41940;BMP180;23057;48.554;14.454;2023-10-13T05:06:23;93968.00;;;21.40
41940;BMP180;23057;48.554;14.454;2023-10-13T05:09:13;93971.00;;;21.40
41940;BMP180;23057;48.554;14.454;2023-10-13T05:12:03;93980.00;;;21.40
41940;BMP180;23057;48.554;14.454;2023-10-13T05:14:52;93980.00;;;21.40
41940;BMP180;23057;48.554;14.454;2023-10-13T05:17:42;93982.00;;;21.50
41940;BMP180;23057;48.554;14.454;2023-10-13T05:20:31;93977.00;;;21.50
41940;BMP180;23057;48.554;14.454;2023-10-13T05:23:21;93973.00;;;21.50
41940;BMP180;23057;48.554;14.454;2023-10-13T05:26:10;93968.00;;;21.50
41940;BMP180;23057;48.554;14.454;2023-10-13T05:28:59;93972.00;;;21.50
41940;BMP180;23057;48.554;14.454;2023-10-13T05:31:49;93976.00;;;21.40
41940;BMP180;23057;48.554;14.454;2023-10-13T05:34:38;93970.00;;;21.50
41940;BMP180;23057;48.554;14.454;2023-10-13T05:37:28;93979.00;;;21.50
41940;BMP180;23057;48.554;14.454;2023-10-13T05:40:18;93983.00;;;21.50
41940;BMP180;23057;48.554;14.454;2023-10-13T05:43:07;93983.00;;;21.50
41940;BMP180;23057;48.554;14.454;2023-10-13T05:46:03;93981.00;;;21.50
41940;BMP180;23057;48.554;14.454;2023-10-13T05:49:13;93987.00;;;21.50
41940;BMP180;23057;48.554;14.454;2023-10-13T05:51:46;93991.00;;;21.50
41940;BMP180;23057;48.554;14.454;2023-10-13T05:54:18;93998.00;;;21.40
41940;BMP180;23057;48.554;14.454;2023-10-13T05:57:08;94009.00;;;21.40
41940;BMP180;23057;48.554;14.454;2023-10-13T05:59:58;94004.00;;;21.40
41940;BMP180;23057;48.554;14.454;2023-10-13T06:02:47;93999.00;;;21.40
41940;BMP180;23057;48.554;14.454;2023-10-13T06:05:38;94002.00;;;21.50
41940;BMP180;23057;48.554;14.454;2023-10-13T06:08:27;93994.00;;;21.50
41940;BMP180;23057;48.554;14.454;2023-10-13T06:11:16;93984.00;;;21.60
41940;BMP180;23057;48.554;14.454;2023-10-13T06:14:06;93984.00;;;21.70
41940;BMP180;23057;48.554;14.454;2023-10-13T06:17:15;93991.00;;;21.80
41940;BMP180;23057;48.554;14.454;2023-10-13T06:20:09;93994.00;;;21.90
41940;BMP180;23057;48.554;14.454;2023-10-13T06:22:59;94001.00;;;22.10
41940;BMP180;23057;48.554;14.454;2023-10-13T06:25:53;94001.00;;;22.30
41940;BMP180;23057;48.554;14.454;2023-10-13T06:28:42;94003.00;;;22.40
41940;BMP180;23057;48.554;14.454;2023-10-13T06:31:16;94009.00;;;22.60
41940;BMP180;23057;48.554;14.454;2023-10-13T06:33:53;93999.00;;;22.70
41940;BMP180;23057;48.554;14.454;2023-10-13T06:36:25;94010.00;;;22.80
41940;BMP180;23057;48.554;14.454;2023-10-13T06:38:57;94015.00;;;22.90
41940;BMP180;23057;48.554;14.454;2023-10-13T06:41:48;94020.00;;;22.90
41940;BMP180;23057;48.554;14.454;2023-10-13T06:44:19;94019.00;;;22.90
41940;BMP180;23057;48.554;14.454;2023-10-13T06:46:53;94015.00;;;22.90
41940;BMP180;23057;48.554;14.454;2023-10-13T06:49:23;94021.00;;;22.90
41940;BMP180;23057;48.554;14.454;2023-10-13T06:51:54;94025.00;;;23.00
41940;BMP180;23057;48.554;14.454;2023-10-13T06:54:30;94026.00;;;23.00
41940;BMP180;23057;48.554;14.454;2023-10-13T06:57:04;94024.00;;;23.10
41940;BMP180;23057;48.554;14.454;2023-10-13T06:59:37;94033.00;;;23.20
41940;BMP180;23057;48.554;14.454;2023-10-13T07:02:09;94035.00;;;23.30
41940;BMP180;23057;48.554;14.454;2023-10-13T07:04:51;94034.00;;;23.40
41940;BMP180;23057;48.554;14.454;2023-10-13T07:07:27;94032.00;;;23.40
41940;BMP180;23057;48.554;14.454;2023-10-13T07:09:58;94033.00;;;23.50
41940;BMP180;23057;48.554;14.454;2023-10-13T07:12:28;94038.00;;;23.50
41940;BMP180;23057;48.554;14.454;2023-10-13T07:15:04;94031.00;;;23.50
41940;BMP180;23057;48.554;14.454;2023-10-13T07:17:41;94037.00;;;23.50
41940;BMP180;23057;48.554;14.454;2023-10-13T07:20:15;94046.00;;;23.50
41940;BMP180;23057;48.554;14.454;2023-10-13T07:22:47;94045.00;;;23.60
41940;BMP180;23057;48.554;14.454;2023-10-13T07:25:56;94050.00;;;23.60
41940;BMP180;23057;48.554;14.454;2023-10-13T07:28:34;94049.00;;;23.60
41940;BMP180;23057;48.554;14.454;2023-10-13T07:31:16;94058.00;;;23.70
41940;BMP180;23057;48.554;14.454;2023-10-13T07:33:57;94058.00;;;23.70
41940;BMP180;23057;48.554;14.454;2023-10-13T07:36:43;94064.00;;;23.70
41940;BMP180;23057;48.554;14.454;2023-10-13T07:39:13;94061.00;;;23.80
41940;BMP180;23057;48.554;14.454;2023-10-13T07:41:52;94069.00;;;23.80
41940;BMP180;23057;48.554;14.454;2023-10-13T07:44:46;94068.00;;;23.80
41940;BMP180;23057;48.554;14.454;2023-10-13T07:47:17;94069.00;;;23.90
41940;BMP180;23057;48.554;14.454;2023-10-13T07:49:50;94064.00;;;24.00
41940;BMP180;23057;48.554;14.454;2023-10-13T07:52:21;94063.00;;;24.10
41940;BMP180;23057;48.554;14.454;2023-10-13T07:54:52;94062.00;;;24.10
41940;BMP180;23057;48.554;14.454;2023-10-13T07:57:41;94061.00;;;24.10
41940;BMP180;23057;48.554;14.454;2023-10-13T08:00:26;94057.00;;;24.30
41940;BMP180;23057;48.554;14.454;2023-10-13T08:03:09;94056.00;;;24.40
41940;BMP180;23057;48.554;14.454;2023-10-13T08:05:54;94053.00;;;24.50
41940;BMP180;23057;48.554;14.454;2023-10-13T08:08:43;94049.00;;;24.60
41940;BMP180;23057;48.554;14.454;2023-10-13T08:11:16;94038.00;;;24.70
41940;BMP180;23057;48.554;14.454;2023-10-13T08:13:59;94049.00;;;24.70
41940;BMP180;23057;48.554;14.454;2023-10-13T08:16:43;94053.00;;;24.80
41940;BMP180;23057;48.554;14.454;2023-10-13T08:19:25;94051.00;;;24.80
41940;BMP180;23057;48.554;14.454;2023-10-13T08:21:59;94049.00;;;24.90
41940;BMP180;23057;48.554;14.454;2023-10-13T08:25:07;94057.00;;;25.10
41940;BMP180;23057;48.554;14.454;2023-10-13T08:28:16;94052.00;;;25.30
41940;BMP180;23057;48.554;14.454;2023-10-13T08:31:07;94056.00;;;25.50
41940;BMP180;23057;48.554;14.454;2023-10-13T08:33:52;94050.00;;;25.70
41940;BMP180;23057;48.554;14.454;2023-10-13T08:36:36;94051.00;;;25.90
41940;BMP180;23057;48.554;14.454;2023-10-13T08:39:08;94046.00;;;26.00
41940;BMP180;23057;48.554;14.454;2023-10-13T08:42:09;94045.00;;;26.20
41940;BMP180;23057;48.554;14.454;2023-10-13T08:44:45;94053.00;;;26.30
41940;BMP180;23057;48.554;14.454;2023-10-13T08:47:17;94050.00;;;26.40
41940;BMP180;23057;48.554;14.454;2023-10-13T08:49:55;94053.00;;;26.60
41940;BMP180;23057;48.554;14.454;2023-10-13T08:52:41;94046.00;;;26.80
41940;BMP180;23057;48.554;14.454;2023-10-13T08:55:19;94052.00;;;27.00
41940;BMP180;23057;48.554;14.454;2023-10-13T08:58:09;94052.00;;;27.10
41940;BMP180;23057;48.554;14.454;2023-10-13T09:00:51;94051.00;;;27.30
41940;BMP180;23057;48.554;14.454;2023-10-13T09:03:42;94049.00;;;27.40
41940;BMP180;23057;48.554;14.454;2023-10-13T09:06:13;94046.00;;;27.50
41940;BMP180;23057;48.554;14.454;2023-10-13T09:08:50;94047.00;;;27.60
41940;BMP180;23057;48.554;14.454;2023-10-13T09:11:38;94044.00;;;27.80
41940;BMP180;23057;48.554;14.454;2023-10-13T09:14:23;94041.00;;;27.90
41940;BMP180;23057;48.554;14.454;2023-10-13T09:17:06;94049.00;;;28.00
41940;BMP180;23057;48.554;14.454;2023-10-13T09:19:53;94042.00;;;28.10
41940;BMP180;23057;48.554;14.454;2023-10-13T09:22:30;94044.00;;;28.10
41940;BMP180;23057;48.554;14.454;2023-10-13T09:25:06;94036.00;;;28.20
41940;BMP180;23057;48.554;14.454;2023-10-13T09:27:43;94035.00;;;28.30
41940;BMP180;23057;48.554;14.454;2023-10-13T09:30:22;94032.00;;;28.40
41940;BMP180;23057;48.554;14.454;2023-10-13T09:33:04;94037.00;;;28.50
41940;BMP180;23057;48.554;14.454;2023-10-13T09:35:35;94031.00;;;28.50
41940;BMP180;23057;48.554;14.454;2023-10-13T09:38:11;94034.00;;;28.60
41940;BMP180;23057;48.554;14.454;2023-10-13T09:40:43;94031.00;;;28.80
41940;BMP180;23057;48.554;14.454;2023-10-13T09:43:20;94033.00;;;28.90
41940;BMP180;23057;48.554;14.454;2023-10-13T09:45:59;94029.00;;;28.90
41940;BMP180;23057;48.554;14.454;2023-10-13T09:48:38;94034.00;;;29.10
41940;BMP180;23057;48.554;14.454;2023-10-13T09:51:17;94027.00;;;29.20
41940;BMP180;23057;48.554;14.454;2023-10-13T09:54:00;94027.00;;;29.30
41940;BMP180;23057;48.554;14.454;2023-10-13T09:56:47;94025.00;;;29.40
41940;BMP180;23057;48.554;14.454;2023-10-13T09:59:38;94029.00;;;29.40
41940;BMP180;23057;48.554;14.454;2023-10-13T10:02:22;94026.00;;;29.50
41940;BMP180;23057;48.554;14.454;2023-10-13T10:04:57;94022.00;;;29.60
41940;BMP180;23057;48.554;14.454;2023-10-13T10:07:56;94033.00;;;29.70
41940;BMP180;23057;48.554;14.454;2023-10-13T10:14:15;94026.00;;;29.70
41940;BMP180;23057;48.554;14.454;2023-10-13T10:17:05;94027.00;;;29.70
41940;BMP180;23057;48.554;14.454;2023-10-13T10:20:06;94024.00;;;29.90
41940;BMP180;23057;48.554;14.454;2023-10-13T10:22:59;94031.00;;;30.00
41940;BMP180;23057;48.554;14.454;2023-10-13T10:25:35;94022.00;;;30.10
41940;BMP180;23057;48.554;14.454;2023-10-13T10:28:07;94024.00;;;30.30
41940;BMP180;23057;48.554;14.454;2023-10-13T10:30:38;94018.00;;;30.30
41940;BMP180;23057;48.554;14.454;2023-10-13T10:33:11;94028.00;;;30.40
41940;BMP180;23057;48.554;14.454;2023-10-13T10:35:45;94023.00;;;30.40
41940;BMP180;23057;48.554;14.454;2023-10-13T10:38:19;94018.00;;;30.40
41940;BMP180;23057;48.554;14.454;2023-10-13T10:41:02;94020.00;;;30.50
41940;BMP180;23057;48.554;14.454;2023-10-13T10:43:37;94012.00;;;30.60
41940;BMP180;23057;48.554;14.454;2023-10-13T10:46:28;94008.00;;;30.70
41940;BMP180;23057;48.554;14.454;2023-10-13T10:49:04;94013.00;;;30.70
41940;BMP180;23057;48.554;14.454;2023-10-13T10:51:45;94008.00;;;30.80
41940;BMP180;23057;48.554;14.454;2023-10-13T10:54:20;94000.00;;;30.90
41940;BMP180;23057;48.554;14.454;2023-10-13T10:56:56;94002.00;;;30.90
41940;BMP180;23057;48.554;14.454;2023-10-13T10:59:34;94002.00;;;30.90
41940;BMP180;23057;48.554;14.454;2023-10-13T11:02:08;93991.00;;;30.90
41940;BMP180;23057;48.554;14.454;2023-10-13T11:04:39;93993.00;;;30.80
41940;BMP180;23057;48.554;14.454;2023-10-13T11:07:23;93982.00;;;30.80
41940;BMP180;23057;48.554;14.454;2023-10-13T11:09:55;93981.00;;;30.90
41940;BMP180;23057;48.554;14.454;2023-10-13T11:12:37;93987.00;;;31.00
41940;BMP180;23057;48.554;14.454;2023-10-13T11:15:10;93971.00;;;31.00
41940;BMP180;23057;48.554;14.454;2023-10-13T11:17:49;93963.00;;;31.10
41940;BMP180;23057;48.554;14.454;2023-10-13T11:20:27;93964.00;;;31.10
41940;BMP180;23057;48.554;14.454;2023-10-13T11:23:14;93964.00;;;31.10
41940;BMP180;23057;48.554;14.454;2023-10-13T11:25:45;93965.00;;;31.10
41940;BMP180;23057;48.554;14.454;2023-10-13T11:28:17;93963.00;;;31.30
41940;BMP180;23057;48.554;14.454;2023-10-13T11:30:50;93961.00;;;31.40
41940;BMP180;23057;48.554;14.454;2023-10-13T11:33:22;93954.00;;;31.50
41940;BMP180;23057;48.554;14.454;2023-10-13T11:35:58;93951.00;;;31.70
41940;BMP180;23057;48.554;14.454;2023-10-13T11:38:34;93963.00;;;31.70
41940;BMP180;23057;48.554;14.454;2023-10-13T11:41:11;93965.00;;;31.70
41940;BMP180;23057;48.554;14.454;2023-10-13T11:43:52;93958.00;;;31.80
41940;BMP180;23057;48.554;14.454;2023-10-13T11:46:37;93947.00;;;31.90
41940;BMP180;23057;48.554;14.454;2023-10-13T11:49:10;93948.00;;;32.00
41940;BMP180;23057;48.554;14.454;2023-10-13T11:51:47;93933.00;;;32.00
41940;BMP180;23057;48.554;14.454;2023-10-13T11:54:22;93937.00;;;32.00
41940;BMP180;23057;48.554;14.454;2023-10-13T11:56:53;93930.00;;;32.00
41940;BMP180;23057;48.554;14.454;2023-10-13T11:59:28;93926.00;;;32.00
41940;BMP180;23057;48.554;14.454;2023-10-13T12:01:59;93926.00;;;32.00
41940;BMP180;23057;48.554;14.454;2023-10-13T12:04:49;93927.00;;;31.90
41940;BMP180;23057;48.554;14.454;2023-10-13T12:07:25;93928.00;;;31.90
41940;BMP180;23057;48.554;14.454;2023-10-13T12:10:15;93921.00;;;32.00
41940;BMP180;23057;48.554;14.454;2023-10-13T12:12:47;93920.00;;;32.10
41940;BMP180;23057;48.554;14.454;2023-10-13T12:15:23;93910.00;;;32.20
41940;BMP180;23057;48.554;14.454;2023-10-13T12:18:07;93910.00;;;32.20
41940;BMP180;23057;48.554;14.454;2023-10-13T12:20:37;93913.00;;;32.20
41940;BMP180;23057;48.554;14.454;2023-10-13T12:23:15;93903.00;;;32.30
41940;BMP180;23057;48.554;14.454;2023-10-13T12:25:47;93907.00;;;32.30
41940;BMP180;23057;48.554;14.454;2023-10-13T12:28:31;93909.00;;;32.20
41940;BMP180;23057;48.554;14.454;2023-10-13T12:31:07;93909.00;;;32.00
41940;BMP180;23057;48.554;14.454;2023-10-13T12:33:41;93901.00;;;32.00
41940;BMP180;23057;48.554;14.454;2023-10-13T12:36:12;93896.00;;;32.00
41940;BMP180;23057;48.554;14.454;2023-10-13T12:39:01;93895.00;;;32.10
41940;BMP180;23057;48.554;14.454;2023-10-13T12:41:51;93899.00;;;32.00
41940;BMP180;23057;48.554;14.454;2023-10-13T12:44:41;93896.00;;;32.10
41940;BMP180;23057;48.554;14.454;2023-10-13T12:47:30;93898.00;;;32.10
41940;BMP180;23057;48.554;14.454;2023-10-13T12:50:20;93892.00;;;32.20
41940;BMP180;23057;48.554;14.454;2023-10-13T12:53:14;93886.00;;;32.20
41940;BMP180;23057;48.554;14.454;2023-10-13T12:55:45;93881.00;;;32.30
41940;BMP180;23057;48.554;14.454;2023-10-13T12:58:15;93884.00;;;32.30
41940;BMP180;23057;48.554;14.454;2023-10-13T13:00:46;93870.00;;;32.40
41940;BMP180;23057;48.554;14.454;2023-10-13T13:03:19;93871.00;;;32.40
41940;BMP180;23057;48.554;14.454;2023-10-13T13:05:50;93875.00;;;32.40
41940;BMP180;23057;48.554;14.454;2023-10-13T13:08:26;93868.00;;;32.40
41940;BMP180;23057;48.554;14.454;2023-10-13T13:10:56;93861.00;;;32.40
41940;BMP180;23057;48.554;14.454;2023-10-13T13:13:27;93865.00;;;32.40
41940;BMP180;23057;48.554;14.454;2023-10-13T13:15:58;93860.00;;;32.40
41940;BMP180;23057;48.554;14.454;2023-10-13T13:18:29;93854.00;;;32.40
41940;BMP180;23057;48.554;14.454;2023-10-13T13:21:00;93856.00;;;32.40
41940;BMP180;23057;48.554;14.454;2023-10-13T13:23:32;93852.00;;;32.40
41940;BMP180;23057;48.554;14.454;2023-10-13T13:26:06;93846.00;;;32.40
41940;BMP180;23057;48.554;14.454;2023-10-13T13:28:47;93842.00;;;32.40
41940;BMP180;23057;48.554;14.454;2023-10-13T13:31:23;93842.00;;;32.40
41940;BMP180;23057;48.554;14.454;2023-10-13T13:33:59;93841.00;;;32.40
41940;BMP180;23057;48.554;14.454;2023-10-13T13:36:30;93845.00;;;32.40
41940;BMP180;23057;48.554;14.454;2023-10-13T13:39:01;93838.00;;;32.50
41940;BMP180;23057;48.554;14.454;2023-10-13T13:41:32;93836.00;;;32.50
41940;BMP180;23057;48.554;14.454;2023-10-13T13:44:04;93826.00;;;32.50
41940;BMP180;23057;48.554;14.454;2023-10-13T13:46:44;93832.00;;;32.50
41940;BMP180;23057;48.554;14.454;2023-10-13T13:49:17;93827.00;;;32.60
41940;BMP180;23057;48.554;14.454;2023-10-13T13:51:49;93827.00;;;32.50
41940;BMP180;23057;48.554;14.454;2023-10-13T13:54:22;93830.00;;;32.50
41940;BMP180;23057;48.554;14.454;2023-10-13T13:56:57;93822.00;;;32.40
41940;BMP180;23057;48.554;14.454;2023-10-13T13:59:28;93826.00;;;32.40
41940;BMP180;23057;48.554;14.454;2023-10-13T14:02:04;93819.00;;;32.30
41940;BMP180;23057;48.554;14.454;2023-10-13T14:04:49;93814.00;;;32.30
41940;BMP180;23057;48.554;14.454;2023-10-13T14:07:21;93807.00;;;32.20
41940;BMP180;23057;48.554;14.454;2023-10-13T14:09:54;93803.00;;;32.20
41940;BMP180;23057;48.554;14.454;2023-10-13T14:12:38;93807.00;;;32.20
41940;BMP180;23057;48.554;14.454;2023-10-13T14:15:14;93803.00;;;32.10
41940;BMP180;23057;48.554;14.454;2023-10-13T14:17:54;93794.00;;;32.10
41940;BMP180;23057;48.554;14.454;2023-10-13T14:20:25;93807.00;;;32.00
41940;BMP180;23057;48.554;14.454;2023-10-13T14:22:57;93797.00;;;32.00
41940;BMP180;23057;48.554;14.454;2023-10-13T14:25:28;93800.00;;;31.90
41940;BMP180;23057;48.554;14.454;2023-10-13T14:28:07;93794.00;;;31.80
41940;BMP180;23057;48.554;14.454;2023-10-13T14:30:38;93794.00;;;31.80
41940;BMP180;23057;48.554;14.454;2023-10-13T14:33:09;93787.00;;;31.70
41940;BMP180;23057;48.554;14.454;2023-10-13T14:35:41;93787.00;;;31.60
41940;BMP180;23057;48.554;14.454;2023-10-13T14:38:17;93782.00;;;31.50
41940;BMP180;23057;48.554;14.454;2023-10-13T14:40:48;93784.00;;;31.40
41940;BMP180;23057;48.554;14.454;2023-10-13T14:43:26;93787.00;;;31.30
41940;BMP180;23057;48.554;14.454;2023-10-13T14:45:57;93781.00;;;31.20
41940;BMP180;23057;48.554;14.454;2023-10-13T14:48:31;93775.00;;;31.10
41940;BMP180;23057;48.554;14.454;2023-10-13T14:51:02;93775.00;;;31.10
41940;BMP180;23057;48.554;14.454;2023-10-13T14:53:41;93773.00;;;31.10
41940;BMP180;23057;48.554;14.454;2023-10-13T14:56:16;93763.00;;;31.10
41940;BMP180;23057;48.554;14.454;2023-10-13T14:58:47;93758.00;;;31.10
41940;BMP180;23057;48.554;14.454;2023-10-13T15:01:23;93759.00;;;31.10
41940;BMP180;23057;48.554;14.454;2023-10-13T15:03:57;93759.00;;;31.00